createdAt,value
2023-04-10T00:00:04.345Z,5.39
2023-04-10T00:02:32.206Z,5.27
2023-04-10T00:05:00.772Z,5.19
2023-04-10T00:07:27.905Z,5.10
2023-04-10T00:09:55.063Z,5.06
2023-04-10T00:12:22.196Z,5.02
2023-04-10T00:14:49.297Z,5.03
2023-04-10T00:17:16.448Z,5.00
2023-04-10T00:19:46.552Z,4.91
2023-04-10T00:22:13.783Z,4.89
2023-04-10T00:24:41.132Z,4.88
2023-04-10T00:27:08.235Z,4.89
2023-04-10T00:29:35.493Z,4.84
2023-04-10T00:32:02.785Z,4.74
2023-04-10T00:34:30.017Z,4.69
2023-04-10T00:36:58.599Z,4.72
2023-04-10T00:39:25.898Z,4.76
2023-04-10T00:41:53.024Z,4.76
2023-04-10T00:44:21.178Z,4.74
2023-04-10T00:46:48.586Z,4.69
2023-04-10T00:49:16.013Z,4.81
2023-04-10T00:51:43.746Z,4.96
2023-04-10T00:54:11.265Z,5.02
2023-04-10T00:56:38.537Z,4.98
2023-04-10T00:59:07.271Z,4.86
2023-04-10T01:01:34.851Z,4.73
2023-04-10T01:04:02.528Z,4.64
2023-04-10T01:07:05.169Z,4.57
2023-04-10T01:09:47.481Z,4.48
2023-04-10T01:12:43.587Z,4.41
2023-04-10T01:15:15.714Z,4.39
2023-04-10T01:17:52.274Z,4.34
2023-04-10T01:20:23.695Z,4.38
2023-04-10T01:23:26.443Z,4.31
2023-04-10T01:26:01.152Z,4.31
2023-04-10T01:29:05.950Z,4.32
2023-04-10T01:31:58.484Z,4.25
2023-04-10T01:34:46.848Z,4.20
2023-04-10T01:37:17.205Z,4.19
2023-04-10T01:39:50.448Z,4.17
2023-04-10T01:42:22.776Z,4.14
2023-04-10T01:44:52.399Z,4.15
2023-04-10T01:47:19.894Z,4.20
2023-04-10T01:49:48.975Z,4.20
2023-04-10T01:52:17.437Z,4.26
2023-04-10T01:54:50.453Z,4.23
2023-04-10T01:57:24.682Z,4.12
2023-04-10T01:59:55.422Z,4.18
2023-04-10T02:02:22.869Z,4.24
2023-04-10T02:04:51.889Z,4.29
2023-04-10T02:07:25.021Z,4.27
2023-04-10T02:10:17.898Z,4.20
2023-04-10T02:13:00.013Z,4.18
2023-04-10T02:15:40.452Z,4.19
2023-04-10T02:18:10.168Z,4.21
2023-04-10T02:20:37.560Z,4.24
2023-04-10T02:23:05.571Z,4.31
2023-04-10T02:25:33.241Z,4.37
2023-04-10T02:28:15.004Z,4.42
2023-04-10T02:30:42.781Z,4.48
2023-04-10T02:33:12.346Z,4.53
2023-04-10T02:35:39.457Z,4.51
2023-04-10T02:38:06.586Z,4.43
2023-04-10T02:40:37.142Z,4.36
2023-04-10T02:43:12.120Z,4.00
2023-04-10T02:45:42.005Z,3.71
2023-04-10T02:48:11.510Z,3.45
2023-04-10T02:50:38.789Z,3.34
2023-04-10T02:53:06.118Z,3.25
2023-04-10T02:55:33.413Z,3.26
2023-04-10T02:58:00.605Z,3.33
2023-04-10T03:00:29.662Z,3.48
2023-04-10T03:03:16.177Z,3.57
2023-04-10T03:05:50.422Z,3.55
2023-04-10T03:08:22.702Z,3.57
2023-04-10T03:10:50.641Z,3.57
2023-04-10T03:13:17.778Z,3.59
2023-04-10T03:15:44.940Z,3.61
2023-04-10T03:18:12.121Z,3.67
2023-04-10T03:20:43.779Z,3.71
2023-04-10T03:23:12.154Z,3.69
2023-04-10T03:25:39.290Z,3.65
2023-04-10T03:28:07.990Z,3.60
2023-04-10T03:30:37.742Z,3.53
2023-04-10T03:33:08.968Z,3.51
2023-04-10T03:35:36.732Z,3.51
2023-04-10T03:38:03.901Z,3.55
2023-04-10T03:40:31.316Z,3.63
2023-04-10T03:42:58.517Z,3.69
2023-04-10T03:45:28.938Z,3.59
2023-04-10T03:47:56.354Z,3.53
2023-04-10T03:50:23.506Z,3.43
2023-04-10T03:52:58.679Z,3.28
2023-04-10T03:55:26.658Z,3.18
2023-04-10T03:57:54.868Z,3.15
2023-04-10T04:00:24.644Z,3.18
2023-04-10T04:03:00.978Z,3.14
2023-04-10T04:05:53.795Z,3.13
2023-04-10T04:08:28.564Z,3.10
2023-04-10T04:11:06.839Z,3.13
2023-04-10T04:13:52.677Z,3.17
2023-04-10T04:16:38.765Z,3.16
2023-04-10T04:19:18.284Z,3.17
2023-04-10T04:22:04.142Z,3.14
2023-04-10T04:24:54.061Z,3.09
2023-04-10T04:27:36.128Z,3.06
2023-04-10T04:30:11.671Z,2.99
2023-04-10T04:32:49.735Z,2.87
2023-04-10T04:35:35.352Z,2.81
2023-04-10T04:38:22.027Z,2.86
2023-04-10T04:41:07.556Z,2.88
2023-04-10T04:44:01.965Z,2.96
2023-04-10T04:46:48.251Z,2.93
2023-04-10T04:49:24.591Z,3.01
2023-04-10T04:52:09.338Z,3.08
2023-04-10T04:54:41.015Z,3.10
2023-04-10T04:57:25.223Z,3.13
2023-04-10T05:00:28.086Z,3.29
2023-04-10T05:03:22.342Z,3.49
2023-04-10T05:06:07.970Z,3.73
2023-04-10T05:09:12.772Z,4.19
2023-04-10T05:11:59.018Z,4.29
2023-04-10T05:14:46.608Z,4.30
2023-04-10T05:17:32.500Z,4.32
2023-04-10T05:20:22.980Z,4.44
2023-04-10T05:23:07.266Z,4.53
2023-04-10T05:25:56.097Z,4.62
2023-04-10T05:28:52.577Z,4.74
2023-04-10T05:31:34.807Z,4.78
2023-04-10T05:34:15.924Z,4.83
2023-04-10T05:36:52.757Z,4.86
2023-04-10T05:39:36.346Z,4.86
2023-04-10T05:42:13.488Z,5.03
2023-04-10T05:44:47.388Z,5.30
2023-04-10T05:47:38.961Z,5.60
2023-04-10T05:50:25.566Z,5.98
2023-04-10T05:53:20.322Z,6.00
2023-04-10T05:56:05.543Z,6.27
2023-04-10T05:58:46.540Z,6.82
2023-04-10T06:01:32.013Z,6.75
2023-04-10T06:04:03.032Z,6.18
2023-04-10T06:06:32.863Z,5.71
2023-04-10T06:09:00.007Z,5.83
2023-04-10T06:11:27.592Z,6.01
2023-04-10T06:13:56.906Z,6.12
2023-04-10T06:16:30.936Z,6.76
2023-04-10T06:18:59.080Z,7.37
2023-04-10T06:21:26.381Z,8.01
2023-04-10T06:23:56.617Z,8.46
2023-04-10T06:26:24.970Z,8.49
2023-04-10T06:28:52.654Z,8.46
2023-04-10T06:31:22.122Z,8.52
2023-04-10T06:33:50.415Z,8.48
2023-04-10T06:36:17.893Z,8.18
2023-04-10T06:38:51.746Z,8.21
2023-04-10T06:41:19.100Z,8.33
2023-04-10T06:43:46.368Z,8.46
2023-04-10T06:46:14.281Z,8.49
2023-04-10T06:48:41.596Z,8.62
2023-04-10T06:51:08.788Z,8.13
2023-04-10T06:53:35.902Z,7.66
2023-04-10T06:56:07.498Z,7.51
2023-04-10T06:58:34.751Z,7.28
2023-04-10T07:01:04.758Z,7.63
2023-04-10T07:03:32.594Z,8.05
2023-04-10T07:05:59.872Z,8.43
2023-04-10T07:08:26.875Z,8.38
2023-04-10T07:10:58.620Z,8.22
2023-04-10T07:13:26.391Z,8.07
2023-04-10T07:15:53.639Z,7.97
2023-04-10T07:18:21.007Z,8.23
2023-04-10T07:20:48.590Z,8.49
2023-04-10T07:23:15.866Z,8.45
2023-04-10T07:25:43.462Z,8.59
2023-04-10T07:28:10.671Z,8.60
2023-04-10T07:30:37.733Z,8.51
2023-04-10T07:33:04.983Z,8.64
2023-04-10T07:35:32.179Z,8.87
2023-04-10T07:37:59.266Z,9.14
2023-04-10T07:40:26.625Z,9.32
2023-04-10T07:42:53.954Z,9.37
2023-04-10T07:45:21.190Z,9.48
2023-04-10T07:47:48.329Z,9.43
2023-04-10T07:50:16.226Z,9.37
2023-04-10T07:52:43.266Z,9.59
2023-04-10T07:55:10.671Z,9.58
2023-04-10T07:57:37.968Z,9.80
2023-04-10T08:00:05.858Z,9.96
2023-04-10T08:02:41.344Z,10.28
2023-04-10T08:05:09.079Z,11.02
2023-04-10T08:07:36.544Z,11.49
2023-04-10T08:10:04.224Z,11.43
2023-04-10T08:12:38.930Z,12.06
2023-04-10T08:15:06.863Z,12.73
2023-04-10T08:17:36.161Z,12.57
2023-04-10T08:20:05.187Z,12.81
2023-04-10T08:22:35.223Z,12.69
2023-04-10T08:25:04.561Z,12.59
2023-04-10T08:27:32.643Z,12.81
2023-04-10T08:29:59.778Z,13.66
2023-04-10T08:32:28.297Z,14.03
2023-04-10T08:34:55.739Z,14.65
2023-04-10T08:37:27.065Z,14.78
2023-04-10T08:39:54.340Z,14.79
2023-04-10T08:42:22.412Z,14.99
2023-04-10T08:44:50.942Z,14.30
2023-04-10T08:47:21.534Z,14.32
2023-04-10T08:49:57.500Z,14.54
2023-04-10T08:52:26.120Z,14.15
2023-04-10T08:54:58.712Z,14.16
2023-04-10T08:57:27.636Z,14.47
2023-04-10T08:59:55.645Z,14.44
2023-04-10T09:02:23.092Z,14.45
2023-04-10T09:04:55.366Z,14.61
2023-04-10T09:07:26.167Z,14.64
2023-04-10T09:09:53.645Z,15.08
2023-04-10T09:12:21.078Z,14.86
2023-04-10T09:14:56.390Z,15.09
2023-04-10T09:17:26.576Z,14.89
2023-04-10T09:19:56.099Z,15.11
2023-04-10T09:22:32.144Z,15.22
2023-04-10T09:25:00.894Z,15.60
2023-04-10T09:27:37.538Z,16.08
2023-04-10T09:30:06.514Z,15.94
2023-04-10T09:32:40.268Z,15.90
2023-04-10T09:35:14.475Z,15.90
2023-04-10T09:37:47.447Z,15.54
2023-04-10T09:40:28.262Z,15.26
2023-04-10T09:42:59.333Z,15.41
2023-04-10T09:45:27.279Z,15.99
2023-04-10T09:48:14.260Z,16.69
2023-04-10T09:50:41.682Z,16.46
2023-04-10T09:53:14.266Z,16.15
2023-04-10T09:55:44.885Z,16.34
2023-04-10T09:58:12.463Z,15.82
2023-04-10T10:00:45.697Z,15.85
2023-04-10T10:03:18.106Z,15.82
2023-04-10T10:05:50.988Z,15.90
2023-04-10T10:08:18.570Z,15.92
2023-04-10T10:10:59.967Z,16.63
2023-04-10T10:13:34.841Z,16.70
2023-04-10T10:16:15.972Z,16.03
2023-04-10T10:18:58.278Z,15.56
2023-04-10T10:21:31.204Z,16.01
2023-04-10T10:24:00.954Z,16.76
2023-04-10T10:26:31.712Z,17.09
2023-04-10T10:29:13.620Z,17.14
2023-04-10T10:31:42.960Z,16.63
2023-04-10T10:34:16.848Z,16.33
2023-04-10T10:36:44.802Z,16.36
2023-04-10T10:39:30.124Z,16.39
2023-04-10T10:41:58.447Z,16.38
2023-04-10T10:44:53.895Z,16.96
2023-04-10T10:47:27.305Z,17.17
2023-04-10T10:50:04.331Z,17.16
2023-04-10T10:52:45.877Z,17.58
2023-04-10T10:55:27.867Z,17.24
2023-04-10T10:57:59.311Z,16.66
2023-04-10T11:00:48.630Z,16.12
2023-04-10T11:03:18.551Z,14.98
2023-04-10T11:06:08.930Z,14.93
2023-04-10T11:08:44.283Z,15.54
2023-04-10T11:11:30.123Z,15.77
2023-04-10T11:14:09.491Z,15.87
2023-04-10T11:16:39.824Z,16.12
2023-04-10T11:19:16.967Z,16.44
2023-04-10T11:22:05.782Z,17.07
2023-04-10T11:25:00.700Z,17.69
2023-04-10T11:28:06.410Z,16.77
2023-04-10T11:30:43.392Z,16.76
2023-04-10T11:33:17.905Z,16.38
2023-04-10T11:35:49.278Z,16.31
2023-04-10T11:38:19.439Z,16.32
2023-04-10T11:41:02.402Z,16.38
2023-04-10T11:43:35.059Z,17.01
2023-04-10T11:46:09.139Z,17.48
2023-04-10T11:48:37.792Z,17.35
2023-04-10T11:51:09.668Z,17.19
2023-04-10T11:53:37.479Z,17.30
2023-04-10T11:56:07.784Z,16.98
2023-04-10T11:58:44.414Z,16.62
2023-04-10T12:01:14.668Z,16.81
2023-04-10T12:03:49.925Z,16.79
2023-04-10T12:06:19.950Z,16.53
2023-04-10T12:08:51.946Z,16.33
2023-04-10T12:11:23.983Z,16.30
2023-04-10T12:13:59.478Z,16.62
2023-04-10T12:16:27.841Z,16.40
2023-04-10T12:18:58.820Z,15.70
2023-04-10T12:21:28.934Z,16.01
2023-04-10T12:23:58.708Z,16.64
2023-04-10T12:26:29.196Z,16.34
2023-04-10T12:29:00.026Z,16.12
2023-04-10T12:31:37.469Z,16.20
2023-04-10T12:34:08.482Z,16.54
2023-04-10T12:36:45.656Z,16.70
2023-04-10T12:39:29.553Z,16.36
2023-04-10T12:42:19.212Z,16.31
2023-04-10T12:45:03.548Z,15.93
2023-04-10T12:47:45.333Z,15.67
2023-04-10T12:50:26.532Z,15.95
2023-04-10T12:53:14.143Z,16.13
2023-04-10T12:55:55.834Z,16.16
2023-04-10T12:58:28.930Z,16.66
2023-04-10T13:01:02.616Z,16.79
2023-04-10T13:03:30.667Z,17.17
2023-04-10T13:05:59.364Z,16.52
2023-04-10T13:08:32.664Z,16.24
2023-04-10T13:11:04.303Z,16.39
2023-04-10T13:13:36.635Z,16.57
2023-04-10T13:16:09.191Z,17.24
2023-04-10T13:18:45.239Z,16.63
2023-04-10T13:21:18.814Z,16.48
2023-04-10T13:23:47.291Z,16.18
2023-04-10T13:26:14.827Z,16.47
2023-04-10T13:28:42.196Z,16.33
2023-04-10T13:31:11.481Z,16.45
2023-04-10T13:33:38.634Z,16.53
2023-04-10T13:36:06.536Z,16.87
2023-04-10T13:38:37.117Z,16.63
2023-04-10T13:41:04.636Z,16.81
2023-04-10T13:43:33.635Z,16.94
2023-04-10T13:46:04.046Z,16.82
2023-04-10T13:48:41.525Z,16.43
2023-04-10T13:51:08.960Z,16.73
2023-04-10T13:53:36.151Z,16.96
2023-04-10T13:56:03.297Z,17.57
2023-04-10T13:58:34.434Z,17.28
2023-04-10T14:01:01.732Z,17.14
2023-04-10T14:03:28.959Z,16.80
2023-04-10T14:05:56.233Z,16.81
2023-04-10T14:08:27.321Z,16.84
2023-04-10T14:10:54.507Z,17.03
2023-04-10T14:13:24.554Z,16.41
2023-04-10T14:15:57.729Z,16.23
2023-04-10T14:18:27.855Z,15.88
2023-04-10T14:20:55.058Z,16.09
2023-04-10T14:23:22.718Z,16.81
2023-04-10T14:25:50.926Z,17.21
2023-04-10T14:28:25.680Z,17.25
2023-04-10T14:30:52.813Z,16.57
2023-04-10T14:33:22.351Z,16.39
2023-04-10T14:35:52.412Z,16.21
2023-04-10T14:38:20.602Z,15.90
2023-04-10T14:40:50.095Z,15.82
2023-04-10T14:43:25.253Z,15.57
2023-04-10T14:45:53.465Z,15.72
2023-04-10T14:48:22.995Z,16.18
2023-04-10T14:50:53.089Z,16.34
2023-04-10T14:53:23.513Z,16.05
2023-04-10T14:55:50.901Z,16.19
2023-04-10T14:58:21.429Z,16.22
2023-04-10T15:00:50.953Z,16.34
2023-04-10T15:03:18.271Z,16.32
2023-04-10T15:05:48.408Z,16.14
2023-04-10T15:08:16.060Z,16.34
2023-04-10T15:10:43.675Z,16.34
2023-04-10T15:13:10.959Z,16.00
2023-04-10T15:15:38.217Z,15.67
2023-04-10T15:18:05.833Z,15.56
2023-04-10T15:20:33.241Z,15.67
2023-04-10T15:23:02.328Z,16.23
2023-04-10T15:25:29.700Z,15.88
2023-04-10T15:28:01.919Z,15.36
2023-04-10T15:30:30.116Z,15.31
2023-04-10T15:32:59.422Z,15.04
2023-04-10T15:35:28.842Z,15.16
2023-04-10T15:38:03.028Z,15.98
2023-04-10T15:40:30.175Z,16.56
2023-04-10T15:43:01.860Z,16.28
2023-04-10T15:45:29.128Z,16.21
2023-04-10T15:48:01.447Z,16.70
2023-04-10T15:50:30.345Z,17.14
2023-04-10T15:52:57.579Z,18.11
2023-04-10T15:55:33.986Z,18.03
2023-04-10T15:58:03.860Z,17.75
2023-04-10T16:00:33.445Z,18.56
2023-04-10T16:03:03.766Z,18.05
2023-04-10T16:05:34.700Z,17.29
2023-04-10T16:08:03.324Z,16.32
2023-04-10T16:10:34.352Z,15.69
2023-04-10T16:13:07.276Z,15.50
2023-04-10T16:15:36.432Z,15.22
2023-04-10T16:18:10.563Z,15.04
2023-04-10T16:20:37.699Z,14.92
2023-04-10T16:23:09.993Z,14.89
2023-04-10T16:25:44.328Z,14.98
2023-04-10T16:28:14.216Z,14.74
2023-04-10T16:30:41.605Z,14.71
2023-04-10T16:33:08.848Z,14.46
2023-04-10T16:35:36.122Z,14.10
2023-04-10T16:38:04.412Z,14.17
2023-04-10T16:40:37.287Z,14.24
2023-04-10T16:43:07.432Z,14.09
2023-04-10T16:45:37.235Z,14.07
2023-04-10T16:48:10.435Z,14.18
2023-04-10T16:50:37.780Z,14.25
2023-04-10T16:53:07.936Z,14.02
2023-04-10T16:55:35.304Z,13.94
2023-04-10T16:58:02.740Z,14.00
2023-04-10T17:00:30.470Z,13.87
2023-04-10T17:03:01.225Z,13.84
2023-04-10T17:05:37.808Z,13.78
2023-04-10T17:08:05.522Z,13.80
2023-04-10T17:10:32.728Z,13.68
2023-04-10T17:12:59.840Z,13.46
2023-04-10T17:15:27.076Z,13.35
2023-04-10T17:17:54.330Z,13.24
2023-04-10T17:20:21.663Z,13.13
2023-04-10T17:22:52.169Z,13.13
2023-04-10T17:25:19.361Z,12.99
2023-04-10T17:27:46.796Z,12.93
2023-04-10T17:30:14.443Z,12.94
2023-04-10T17:32:41.954Z,12.85
2023-04-10T17:35:10.562Z,12.85
2023-04-10T17:37:38.567Z,12.75
2023-04-10T17:40:07.228Z,12.71
2023-04-10T17:42:36.124Z,12.54
2023-04-10T17:45:03.432Z,12.46
2023-04-10T17:47:33.570Z,12.38
2023-04-10T17:50:00.786Z,12.39
2023-04-10T17:52:28.058Z,12.35
2023-04-10T17:54:55.384Z,12.23
2023-04-10T17:57:22.465Z,12.24
2023-04-10T17:59:49.533Z,12.14
2023-04-10T18:02:16.690Z,12.13
2023-04-10T18:04:44.035Z,12.06
2023-04-10T18:07:11.583Z,11.96
2023-04-10T18:09:47.631Z,11.97
2023-04-10T18:12:14.691Z,11.90
2023-04-10T18:14:42.903Z,11.93
2023-04-10T18:17:10.087Z,11.80
2023-04-10T18:19:37.673Z,11.78
2023-04-10T18:22:04.896Z,11.62
2023-04-10T18:24:35.427Z,11.60
2023-04-10T18:27:03.839Z,11.59
2023-04-10T18:29:31.477Z,11.56
2023-04-10T18:31:58.852Z,11.60
2023-04-10T18:34:32.078Z,11.50
2023-04-10T18:37:04.659Z,11.46
2023-04-10T18:39:32.896Z,11.41
2023-04-10T18:42:02.622Z,11.41
2023-04-10T18:44:30.586Z,11.34
2023-04-10T18:47:04.675Z,11.27
2023-04-10T18:49:32.541Z,11.26
2023-04-10T18:52:00.690Z,11.23
2023-04-10T18:54:29.057Z,11.24
2023-04-10T18:56:56.980Z,11.21
2023-04-10T18:59:24.493Z,11.15
2023-04-10T19:01:51.773Z,11.15
2023-04-10T19:04:19.831Z,11.05
2023-04-10T19:06:47.315Z,10.95
2023-04-10T19:09:14.935Z,10.88
2023-04-10T19:11:42.892Z,10.75
2023-04-10T19:14:10.293Z,10.72
2023-04-10T19:16:39.595Z,10.69
2023-04-10T19:19:07.202Z,10.72
2023-04-10T19:21:34.574Z,10.64
2023-04-10T19:24:01.772Z,10.54
2023-04-10T19:26:28.880Z,10.46
2023-04-10T19:28:56.228Z,10.39
2023-04-10T19:31:24.023Z,10.38
2023-04-10T19:33:51.322Z,10.32
2023-04-10T19:36:18.677Z,10.24
2023-04-10T19:38:48.951Z,10.28
2023-04-10T19:41:16.676Z,10.20
2023-04-10T19:43:43.898Z,10.13
2023-04-10T19:46:21.492Z,10.10
2023-04-10T19:48:49.036Z,10.09
2023-04-10T19:51:16.198Z,10.01
2023-04-10T19:53:46.032Z,9.97
2023-04-10T19:56:13.578Z,9.96
2023-04-10T19:58:41.605Z,9.92
2023-04-10T20:01:10.314Z,9.87
2023-04-10T20:03:38.567Z,9.84
2023-04-10T20:06:07.578Z,9.85
2023-04-10T20:08:35.719Z,9.81
2023-04-10T20:11:06.114Z,9.80
2023-04-10T20:13:34.422Z,9.79
2023-04-10T20:16:01.920Z,9.74
2023-04-10T20:18:30.816Z,9.83
2023-04-10T20:20:57.959Z,9.68
2023-04-10T20:23:25.377Z,9.74
2023-04-10T20:25:52.539Z,9.67
2023-04-10T20:28:19.842Z,9.57
2023-04-10T20:30:46.957Z,9.49
2023-04-10T20:33:14.082Z,9.42
2023-04-10T20:35:41.234Z,9.38
2023-04-10T20:38:08.442Z,9.36
2023-04-10T20:40:36.113Z,9.32
2023-04-10T20:43:03.242Z,9.33
2023-04-10T20:45:30.342Z,9.26
2023-04-10T20:47:57.731Z,9.23
2023-04-10T20:50:25.063Z,9.16
2023-04-10T20:52:52.144Z,9.09
2023-04-10T20:55:19.354Z,9.04
2023-04-10T20:57:47.888Z,9.07
2023-04-10T21:00:15.594Z,9.09
2023-04-10T21:02:42.777Z,9.05
2023-04-10T21:05:11.361Z,9.01
2023-04-10T21:07:38.535Z,9.00
2023-04-10T21:10:06.355Z,9.01
2023-04-10T21:12:33.582Z,8.94
2023-04-10T21:15:00.820Z,8.99
2023-04-10T21:17:31.314Z,8.95
2023-04-10T21:19:59.148Z,8.84
2023-04-10T21:22:29.112Z,8.81
2023-04-10T21:24:56.649Z,8.78
2023-04-10T21:27:24.050Z,8.79
2023-04-10T21:29:51.267Z,8.77
2023-04-10T21:32:19.942Z,8.76
2023-04-10T21:34:47.080Z,8.78
2023-04-10T21:37:19.925Z,8.74
2023-04-10T21:39:49.722Z,8.76
2023-04-10T21:42:18.800Z,8.73
2023-04-10T21:44:46.162Z,8.66
2023-04-10T21:47:13.287Z,8.66
2023-04-10T21:49:40.442Z,8.64
2023-04-10T21:52:07.801Z,8.64
2023-04-10T21:54:34.937Z,8.64
2023-04-10T21:57:02.272Z,8.61
2023-04-10T21:59:31.983Z,8.60
2023-04-10T22:01:59.320Z,8.63
2023-04-10T22:04:27.190Z,8.62
2023-04-10T22:06:54.163Z,8.63
2023-04-10T22:09:27.614Z,8.66
2023-04-10T22:11:57.786Z,8.54
2023-04-10T22:14:25.672Z,8.52
2023-04-10T22:16:52.701Z,8.54
2023-04-10T22:19:19.812Z,8.48
2023-04-10T22:21:46.913Z,8.51
2023-04-10T22:24:17.008Z,8.52
2023-04-10T22:26:46.100Z,8.55
2023-04-10T22:29:14.660Z,8.59
2023-04-10T22:31:43.432Z,8.57
2023-04-10T22:34:11.039Z,8.57
2023-04-10T22:36:38.122Z,8.60
2023-04-10T22:39:05.584Z,8.61
2023-04-10T22:41:33.201Z,8.58
2023-04-10T22:44:00.503Z,8.63
2023-04-10T22:46:27.842Z,8.68
2023-04-10T22:48:56.408Z,8.70
2023-04-10T22:51:23.851Z,8.72
2023-04-10T22:53:51.475Z,8.69
2023-04-10T22:56:19.721Z,8.63
2023-04-10T22:58:46.841Z,8.65
2023-04-10T23:01:13.898Z,8.64
2023-04-10T23:03:41.072Z,8.63
2023-04-10T23:06:08.630Z,8.63
2023-04-10T23:08:36.703Z,8.59
2023-04-10T23:11:03.984Z,8.57
2023-04-10T23:13:31.214Z,8.58
2023-04-10T23:15:58.309Z,8.68
2023-04-10T23:18:25.421Z,8.65
2023-04-10T23:20:52.542Z,8.61
2023-04-10T23:23:20.041Z,8.63
2023-04-10T23:25:47.531Z,8.51
2023-04-10T23:28:15.304Z,8.60
2023-04-10T23:30:42.653Z,8.57
2023-04-10T23:33:09.761Z,8.57
2023-04-10T23:35:36.930Z,8.64
2023-04-10T23:38:04.099Z,8.52
2023-04-10T23:40:31.303Z,8.57
2023-04-10T23:42:58.400Z,8.66
2023-04-10T23:45:25.513Z,8.66
2023-04-10T23:47:52.970Z,8.61
2023-04-10T23:50:20.098Z,8.65
2023-04-10T23:52:51.251Z,8.81
2023-04-10T23:55:18.681Z,8.79
2023-04-10T23:57:45.822Z,8.95
